Terminal Aerodrome Forecast
Issued by NWS Greer, SC

Current Version | Previous Version | Text Only | Print | Product List | Glossary On
Versions: 1 2 3 4 5 6 7 8 9 10 11 12 13 14 15 16 17 18 19 20 21 22 23 24 25 26 27 28
000
FTUS42 KGSP 291120
TAFAVL
TAF
KAVL 291120Z 2912/3012 13003KT P6SM SCT030
     FM291700 17008KT P6SM SCT240
     FM300000 17005KT P6SM SCT050
     FM300500 18003KT P6SM BKN015
     FM300600 18003KT P6SM BKN008 PROB30 3008/3010 4SM -SHRA
     FM301000 18003KT 4SM BR BKN003 PROB30 3010/3012 1SM -SHRA BR=

USA.gov is the U.S. government's official web portal to all federal, state and local government web resources and services.